createdAt,value
2022-10-30T00:00:08.649Z,99642.34
2022-10-30T00:01:10.287Z,99642.56
2022-10-30T00:02:12.197Z,99650.91
2022-10-30T00:03:15.243Z,99645.81
2022-10-30T00:04:17.100Z,99635.13
2022-10-30T00:05:20.962Z,99647.59
2022-10-30T00:06:22.620Z,99642.13
2022-10-30T00:07:24.358Z,99631.06
2022-10-30T00:08:26.054Z,99633.53
2022-10-30T00:09:27.745Z,99630.25
2022-10-30T00:10:29.381Z,99635.13
2022-10-30T00:11:31.037Z,99636.75
2022-10-30T00:12:32.807Z,99644.94
2022-10-30T00:13:34.547Z,99641.69
2022-10-30T00:14:36.239Z,99635.72
2022-10-30T00:15:38.521Z,99640.81
2022-10-30T00:16:40.165Z,99629.69
2022-10-30T00:17:41.864Z,99626.59
2022-10-30T00:18:43.619Z,99637.59
2022-10-30T00:19:45.298Z,99635.41
2022-10-30T00:20:47.496Z,99632.19
2022-10-30T00:21:49.164Z,99628.13
2022-10-30T00:22:50.917Z,99640.25
2022-10-30T00:23:53.778Z,99631.56
2022-10-30T00:24:55.469Z,99634.03
2022-10-30T00:25:57.152Z,99631.75
2022-10-30T00:26:58.797Z,99627.47
2022-10-30T00:28:00.488Z,99628.75
2022-10-30T00:29:02.135Z,99614.09
2022-10-30T00:30:04.147Z,99616.34
2022-10-30T00:31:06.206Z,99620.25
2022-10-30T00:32:08.097Z,99611.06
2022-10-30T00:33:09.792Z,99617.00
2022-10-30T00:34:11.601Z,99615.16
2022-10-30T00:35:13.242Z,99611.53
2022-10-30T00:36:14.909Z,99608.06
2022-10-30T00:37:16.809Z,99610.06
2022-10-30T00:38:18.496Z,99605.88
2022-10-30T00:39:20.149Z,99609.34
2022-10-30T00:40:22.253Z,99607.47
2022-10-30T00:41:25.228Z,99605.06
2022-10-30T00:42:30.421Z,99611.16
2022-10-30T00:43:36.756Z,99606.06
2022-10-30T00:44:53.145Z,99607.81
2022-10-30T00:45:56.091Z,99608.38
2022-10-30T00:46:59.381Z,99599.03
2022-10-30T00:48:03.950Z,99597.38
2022-10-30T00:49:16.915Z,99594.94
2022-10-30T00:50:38.818Z,99594.44
2022-10-30T00:51:45.241Z,99592.41
2022-10-30T00:52:52.863Z,99596.38
2022-10-30T00:53:58.090Z,99590.69
2022-10-30T00:55:04.740Z,99588.88
2022-10-30T00:56:08.829Z,99582.16
2022-10-30T00:57:10.747Z,99577.91
2022-10-30T00:58:17.276Z,99580.28
2022-10-30T00:59:25.263Z,99581.56
2022-10-30T01:00:28.900Z,99582.25
2022-10-30T01:01:36.813Z,99586.94
2022-10-30T01:02:40.595Z,99571.94
2022-10-30T01:03:42.436Z,99582.38
2022-10-30T01:04:46.356Z,99581.09
2022-10-30T01:05:51.792Z,99580.94
2022-10-30T01:06:53.822Z,99583.38
2022-10-30T01:07:55.701Z,99584.25
2022-10-30T01:09:00.011Z,99587.56
2022-10-30T01:10:02.173Z,99587.38
2022-10-30T01:11:05.474Z,99592.19
2022-10-30T01:12:07.772Z,99596.94
2022-10-30T01:13:09.827Z,99587.38
2022-10-30T01:14:14.571Z,99593.09
2022-10-30T01:15:16.476Z,99589.06
2022-10-30T01:16:53.517Z,99602.91
2022-10-30T01:18:41.521Z,99590.53
2022-10-30T01:19:56.955Z,99594.63
2022-10-30T01:21:19.692Z,99589.88
2022-10-30T01:22:39.566Z,99595.56
2022-10-30T01:23:50.301Z,99592.28
2022-10-30T01:25:03.915Z,99593.09
2022-10-30T01:26:27.178Z,99587.66
2022-10-30T01:27:40.458Z,99591.28
2022-10-30T01:29:12.192Z,99578.97
2022-10-30T01:30:25.967Z,99588.19
2022-10-30T01:31:41.303Z,99579.09
2022-10-30T01:33:03.976Z,99579.47
2022-10-30T01:34:19.975Z,99570.72
2022-10-30T01:35:32.447Z,99578.72
2022-10-30T01:36:40.787Z,99573.72
2022-10-30T01:37:48.574Z,99570.97
2022-10-30T01:39:22.698Z,99574.00
2022-10-30T01:40:24.478Z,99565.06
2022-10-30T01:41:26.188Z,99559.34
2022-10-30T01:42:46.718Z,99568.31
2022-10-30T01:43:53.265Z,99566.31
2022-10-30T01:44:54.953Z,99572.50
2022-10-30T01:46:24.235Z,99572.09
2022-10-30T01:47:46.799Z,99571.75
2022-10-30T01:49:17.721Z,99568.47
2022-10-30T01:50:57.236Z,99573.38
2022-10-30T01:52:26.712Z,99567.66
2022-10-30T01:53:46.963Z,99568.28
2022-10-30T01:55:08.201Z,99571.94
2022-10-30T01:56:27.709Z,99578.03
2022-10-30T01:57:34.639Z,99567.47
2022-10-30T01:59:15.886Z,99563.94
2022-10-30T02:00:20.232Z,99554.59
2022-10-30T02:01:24.062Z,99563.94
2022-10-30T02:02:26.494Z,99567.97
2022-10-30T02:03:28.439Z,99562.63
2022-10-30T02:04:31.076Z,99563.63
2022-10-30T02:05:44.067Z,99554.28
2022-10-30T02:06:46.047Z,99554.94
2022-10-30T02:07:47.834Z,99535.25
2022-10-30T02:08:49.490Z,99551.94
2022-10-30T02:09:52.691Z,99549.19
2022-10-30T02:10:55.557Z,99541.09
2022-10-30T02:11:58.296Z,99547.66
2022-10-30T02:13:00.087Z,99539.06
2022-10-30T02:14:07.051Z,99545.56
2022-10-30T02:15:10.105Z,99537.84
2022-10-30T02:16:11.951Z,99534.22
2022-10-30T02:17:14.005Z,99536.13
2022-10-30T02:18:15.863Z,99538.94
2022-10-30T02:19:17.917Z,99530.84
2022-10-30T02:20:20.578Z,99530.31
2022-10-30T02:21:22.526Z,99528.84
2022-10-30T02:22:25.069Z,99517.66
2022-10-30T02:23:26.910Z,99531.38
2022-10-30T02:24:29.344Z,99528.72
2022-10-30T02:25:31.158Z,99528.38
2022-10-30T02:26:32.882Z,99517.53
2022-10-30T02:27:34.526Z,99528.00
2022-10-30T02:28:36.901Z,99523.91
2022-10-30T02:29:38.642Z,99519.47
2022-10-30T02:30:44.274Z,99524.97
2022-10-30T02:31:45.974Z,99519.09
2022-10-30T02:32:47.759Z,99515.81
2022-10-30T02:33:49.687Z,99514.19
2022-10-30T02:34:51.335Z,99529.88
2022-10-30T02:35:53.428Z,99527.00
2022-10-30T02:36:55.108Z,99521.16
2022-10-30T02:37:57.127Z,99534.59
2022-10-30T02:39:00.218Z,99521.97
2022-10-30T02:40:06.100Z,99532.53
2022-10-30T02:41:07.790Z,99516.72
2022-10-30T02:42:09.427Z,99524.94
2022-10-30T02:43:11.070Z,99526.50
2022-10-30T02:44:12.756Z,99528.06
2022-10-30T02:45:14.437Z,99523.50
2022-10-30T02:46:16.154Z,99523.31
2022-10-30T02:47:17.849Z,99529.69
2022-10-30T02:48:19.537Z,99525.69
2022-10-30T02:49:21.220Z,99533.84
2022-10-30T02:50:22.860Z,99536.13
2022-10-30T02:51:24.569Z,99531.50
2022-10-30T02:52:26.228Z,99534.75
2022-10-30T02:53:27.961Z,99525.22
2022-10-30T02:54:29.622Z,99533.53
2022-10-30T02:55:31.294Z,99539.28
2022-10-30T02:56:32.985Z,99544.19
2022-10-30T02:57:34.657Z,99535.00
2022-10-30T02:58:36.783Z,99534.81
2022-10-30T02:59:38.531Z,99529.56
2022-10-30T03:00:40.169Z,99524.88
2022-10-30T03:01:42.030Z,99534.59
2022-10-30T03:02:43.790Z,99533.38
2022-10-30T03:03:46.297Z,99539.47
2022-10-30T03:04:48.077Z,99535.47
2022-10-30T03:05:49.795Z,99534.66
2022-10-30T03:06:51.493Z,99530.66
2022-10-30T03:07:55.115Z,99523.75
2022-10-30T03:08:56.941Z,99526.31
2022-10-30T03:09:58.637Z,99527.41
2022-10-30T03:11:05.951Z,99527.59
2022-10-30T03:12:08.020Z,99523.50
2022-10-30T03:13:09.679Z,99528.78
2022-10-30T03:14:11.902Z,99535.13
2022-10-30T03:15:13.595Z,99528.06
2022-10-30T03:16:17.239Z,99537.41
2022-10-30T03:17:18.892Z,99533.78
2022-10-30T03:18:20.668Z,99529.94
2022-10-30T03:19:22.404Z,99532.38
2022-10-30T03:20:24.105Z,99529.31
2022-10-30T03:21:28.074Z,99529.03
2022-10-30T03:22:30.075Z,99524.72
2022-10-30T03:23:32.063Z,99526.25
2022-10-30T03:24:33.734Z,99525.44
2022-10-30T03:25:35.384Z,99516.69
2022-10-30T03:26:37.025Z,99520.81
2022-10-30T03:27:38.719Z,99521.16
2022-10-30T03:28:40.376Z,99512.25
2022-10-30T03:29:42.027Z,99526.34
2022-10-30T03:30:43.731Z,99521.91
2022-10-30T03:31:45.472Z,99526.00
2022-10-30T03:32:47.179Z,99530.69
2022-10-30T03:33:48.901Z,99531.16
2022-10-30T03:34:50.577Z,99527.88
2022-10-30T03:35:52.265Z,99537.53
2022-10-30T03:36:53.923Z,99536.06
2022-10-30T03:37:55.586Z,99542.34
2022-10-30T03:38:57.330Z,99529.06
2022-10-30T03:39:58.973Z,99541.78
2022-10-30T03:41:01.018Z,99547.03
2022-10-30T03:42:02.674Z,99535.50
2022-10-30T03:43:04.467Z,99534.97
2022-10-30T03:44:06.159Z,99532.88
2022-10-30T03:45:08.378Z,99531.44
2022-10-30T03:46:11.221Z,99528.59
2022-10-30T03:47:12.877Z,99530.25
2022-10-30T03:48:14.804Z,99543.22
2022-10-30T03:49:16.496Z,99539.78
2022-10-30T03:50:18.132Z,99533.09
2022-10-30T03:51:19.779Z,99541.41
2022-10-30T03:52:21.444Z,99537.97
2022-10-30T03:53:26.240Z,99546.69
2022-10-30T03:54:27.934Z,99540.53
2022-10-30T03:55:29.776Z,99533.97
2022-10-30T03:56:31.454Z,99538.16
2022-10-30T03:57:37.270Z,99538.06
2022-10-30T03:58:38.966Z,99538.06
2022-10-30T03:59:40.674Z,99542.63
2022-10-30T04:00:42.341Z,99540.59
2022-10-30T04:01:44.136Z,99541.88
2022-10-30T04:02:50.776Z,99539.06
2022-10-30T04:03:52.421Z,99541.69
2022-10-30T04:04:54.113Z,99540.59
2022-10-30T04:05:55.772Z,99531.78
2022-10-30T04:06:57.457Z,99538.25
2022-10-30T04:08:01.586Z,99531.16
2022-10-30T04:09:03.520Z,99532.97
2022-10-30T04:10:05.560Z,99545.31
2022-10-30T04:11:10.245Z,99534.78
2022-10-30T04:12:11.966Z,99530.81
2022-10-30T04:13:16.064Z,99540.06
2022-10-30T04:14:17.714Z,99507.34
2022-10-30T04:15:19.408Z,99542.88
2022-10-30T04:16:21.058Z,99537.16
2022-10-30T04:17:22.740Z,99547.78
2022-10-30T04:18:25.125Z,99547.78
2022-10-30T04:19:26.809Z,99541.78
2022-10-30T04:20:29.215Z,99554.22
2022-10-30T04:21:30.893Z,99547.97
2022-10-30T04:22:32.686Z,99545.97
2022-10-30T04:23:34.411Z,99553.69
2022-10-30T04:24:36.050Z,99538.41
2022-10-30T04:25:37.748Z,99555.31
2022-10-30T04:26:39.391Z,99554.13
2022-10-30T04:27:45.124Z,99557.41
2022-10-30T04:28:48.237Z,99554.13
2022-10-30T04:29:49.890Z,99558.69
2022-10-30T04:30:51.585Z,99550.94
2022-10-30T04:31:53.484Z,99555.84
2022-10-30T04:32:57.287Z,99556.84
2022-10-30T04:33:59.515Z,99552.19
2022-10-30T04:35:01.146Z,99555.09
2022-10-30T04:36:02.808Z,99544.03
2022-10-30T04:37:05.252Z,99554.09
2022-10-30T04:38:10.219Z,99551.91
2022-10-30T04:39:11.930Z,99544.09
2022-10-30T04:40:13.603Z,99543.00
2022-10-30T04:41:15.261Z,99533.38
2022-10-30T04:42:17.071Z,99546.25
2022-10-30T04:43:18.714Z,99547.72
2022-10-30T04:44:20.423Z,99547.91
2022-10-30T04:45:22.188Z,99541.53
2022-10-30T04:46:23.894Z,99544.50
2022-10-30T04:47:25.632Z,99534.06
2022-10-30T04:48:27.514Z,99539.16
2022-10-30T04:49:29.143Z,99539.97
2022-10-30T04:50:31.967Z,99541.94
2022-10-30T04:51:33.756Z,99524.59
2022-10-30T04:52:35.455Z,99537.03
2022-10-30T04:53:37.347Z,99527.22
2022-10-30T04:54:39.053Z,99538.56
2022-10-30T04:55:40.779Z,99536.34
2022-10-30T04:56:42.461Z,99532.34
2022-10-30T04:57:44.116Z,99530.19
2022-10-30T04:58:45.771Z,99536.81
2022-10-30T04:59:47.448Z,99535.66
2022-10-30T05:00:49.138Z,99525.31
2022-10-30T05:01:50.891Z,99547.38
2022-10-30T05:02:53.068Z,99543.13
2022-10-30T05:03:55.107Z,99539.66
2022-10-30T05:04:56.888Z,99546.03
2022-10-30T05:06:02.164Z,99546.13
2022-10-30T05:07:03.906Z,99554.28
2022-10-30T05:08:05.645Z,99556.44
2022-10-30T05:09:07.304Z,99554.75
2022-10-30T05:10:12.386Z,99549.75
2022-10-30T05:11:14.088Z,99551.38
2022-10-30T05:12:17.082Z,99553.03
2022-10-30T05:13:18.724Z,99562.50
2022-10-30T05:14:20.404Z,99556.22
2022-10-30T05:15:22.295Z,99556.69
2022-10-30T05:16:23.982Z,99546.06
2022-10-30T05:17:25.712Z,99557.97
2022-10-30T05:18:27.447Z,99557.88
2022-10-30T05:19:29.210Z,99552.78
2022-10-30T05:20:30.878Z,99561.59
2022-10-30T05:21:32.558Z,99553.41
2022-10-30T05:22:34.320Z,99554.22
2022-10-30T05:23:35.956Z,99558.78
2022-10-30T05:24:37.625Z,99558.31
2022-10-30T05:25:39.319Z,99552.69
2022-10-30T05:26:41.139Z,99554.78
2022-10-30T05:27:42.838Z,99549.13
2022-10-30T05:28:44.548Z,99556.69
2022-10-30T05:29:46.201Z,99555.59
2022-10-30T05:30:47.898Z,99553.16
2022-10-30T05:31:49.611Z,99551.78
2022-10-30T05:32:51.259Z,99553.22
2022-10-30T05:33:52.908Z,99556.97
2022-10-30T05:34:54.553Z,99553.94
2022-10-30T05:35:56.208Z,99557.03
2022-10-30T05:36:57.875Z,99555.69
2022-10-30T05:38:00.784Z,99552.50
2022-10-30T05:39:03.097Z,99550.13
2022-10-30T05:40:05.238Z,99552.66
2022-10-30T05:41:06.960Z,99549.66
2022-10-30T05:42:13.566Z,99544.84
2022-10-30T05:43:15.677Z,99552.22
2022-10-30T05:44:28.840Z,99542.09
2022-10-30T05:45:38.805Z,99550.47
2022-10-30T05:46:40.891Z,99543.28
2022-10-30T05:47:42.899Z,99541.28
2022-10-30T05:48:44.569Z,99547.19
2022-10-30T05:49:46.215Z,99548.72
2022-10-30T05:50:47.927Z,99547.34
2022-10-30T05:51:49.593Z,99558.81
2022-10-30T05:52:58.393Z,99557.84
2022-10-30T05:54:00.057Z,99554.88
2022-10-30T05:55:01.780Z,99570.78
2022-10-30T05:56:03.640Z,99577.78
2022-10-30T05:57:05.286Z,99565.66
2022-10-30T05:58:07.333Z,99571.88
2022-10-30T05:59:08.995Z,99573.81
2022-10-30T06:00:11.642Z,99561.84
2022-10-30T06:01:13.377Z,99564.13
2022-10-30T06:02:17.137Z,99577.81
2022-10-30T06:03:18.873Z,99570.16
2022-10-30T06:04:20.504Z,99570.03
2022-10-30T06:05:22.154Z,99562.50
2022-10-30T06:06:23.851Z,99576.41
2022-10-30T06:07:25.516Z,99572.84
2022-10-30T06:08:27.227Z,99579.34
2022-10-30T06:09:28.880Z,99570.06
2022-10-30T06:10:30.729Z,99572.13
2022-10-30T06:11:32.441Z,99570.34
2022-10-30T06:12:34.198Z,99562.84
2022-10-30T06:13:35.883Z,99572.25
2022-10-30T06:14:37.523Z,99564.38
2022-10-30T06:15:39.219Z,99557.06
2022-10-30T06:16:40.873Z,99570.13
2022-10-30T06:17:42.626Z,99565.50
2022-10-30T06:18:44.272Z,99562.66
2022-10-30T06:19:45.908Z,99569.00
2022-10-30T06:20:47.594Z,99565.75
2022-10-30T06:21:49.355Z,99562.34
2022-10-30T06:23:10.421Z,99567.25
2022-10-30T06:24:12.294Z,99566.44
2022-10-30T06:25:14.096Z,99564.06
2022-10-30T06:26:15.768Z,99563.31
2022-10-30T06:27:17.406Z,99566.78
2022-10-30T06:28:19.051Z,99562.72
2022-10-30T06:29:20.695Z,99564.56
2022-10-30T06:30:22.964Z,99560.94
2022-10-30T06:31:24.727Z,99560.53
2022-10-30T06:32:26.391Z,99558.72
2022-10-30T06:33:28.160Z,99560.97
2022-10-30T06:34:29.945Z,99554.47
2022-10-30T06:35:32.105Z,99555.69
2022-10-30T06:36:58.574Z,99556.94
2022-10-30T06:38:00.541Z,99559.59
2022-10-30T06:39:02.358Z,99560.59
2022-10-30T06:40:04.629Z,99553.00
2022-10-30T06:41:06.276Z,99546.59
2022-10-30T06:42:08.355Z,99550.94
2022-10-30T06:43:10.115Z,99549.28
2022-10-30T06:44:11.892Z,99547.16
2022-10-30T06:45:14.735Z,99550.41
2022-10-30T06:46:16.412Z,99548.75
2022-10-30T06:47:18.169Z,99544.63
2022-10-30T06:48:19.845Z,99549.28
2022-10-30T06:49:21.504Z,99524.91
2022-10-30T06:50:24.311Z,99536.97
2022-10-30T06:51:26.057Z,99547.47
2022-10-30T06:52:27.727Z,99538.44
2022-10-30T06:53:29.567Z,99539.81
2022-10-30T06:54:31.264Z,99536.66
2022-10-30T06:55:33.153Z,99544.63
2022-10-30T06:56:34.958Z,99536.06
2022-10-30T06:57:36.672Z,99543.72
2022-10-30T06:58:39.376Z,99534.63
2022-10-30T06:59:41.020Z,99542.69
2022-10-30T07:00:42.803Z,99540.47
2022-10-30T07:01:44.707Z,99542.84
2022-10-30T07:03:02.257Z,99531.50
2022-10-30T07:04:04.456Z,99531.28
2022-10-30T07:05:06.263Z,99530.53
2022-10-30T07:06:08.269Z,99533.81
2022-10-30T07:07:09.929Z,99535.47
2022-10-30T07:08:11.955Z,99521.75
2022-10-30T07:09:13.701Z,99532.09
2022-10-30T07:10:15.491Z,99534.81
2022-10-30T07:11:17.273Z,99529.94
2022-10-30T07:12:18.964Z,99540.13
2022-10-30T07:13:20.658Z,99540.84
2022-10-30T07:14:22.337Z,99542.03
2022-10-30T07:15:25.006Z,99547.13
2022-10-30T07:16:26.681Z,99545.94
2022-10-30T07:17:28.353Z,99543.81
2022-10-30T07:18:30.148Z,99548.06
2022-10-30T07:19:31.846Z,99542.66
2022-10-30T07:20:35.241Z,99536.94
2022-10-30T07:21:37.105Z,99538.44
2022-10-30T07:22:39.438Z,99537.53
2022-10-30T07:23:41.091Z,99535.56
2022-10-30T07:24:42.734Z,99534.53
2022-10-30T07:25:44.394Z,99520.31
2022-10-30T07:26:46.049Z,99523.47
2022-10-30T07:27:49.883Z,99518.38
2022-10-30T07:28:51.580Z,99518.13
2022-10-30T07:29:53.237Z,99521.06
2022-10-30T07:30:54.945Z,99523.06
2022-10-30T07:32:02.729Z,99517.75
2022-10-30T07:33:06.832Z,99513.53
2022-10-30T07:34:08.565Z,99508.53
2022-10-30T07:35:12.797Z,99508.25
2022-10-30T07:36:15.180Z,99517.53
2022-10-30T07:37:16.904Z,99508.69
2022-10-30T07:38:18.537Z,99516.00
2022-10-30T07:39:20.193Z,99503.41
2022-10-30T07:40:22.053Z,99506.13
2022-10-30T07:41:23.730Z,99503.94
2022-10-30T07:42:25.406Z,99497.03
2022-10-30T07:43:27.061Z,99490.94
2022-10-30T07:44:28.715Z,99504.59
2022-10-30T07:45:31.627Z,99502.31
2022-10-30T07:46:33.321Z,99494.75
2022-10-30T07:47:42.090Z,99494.72
2022-10-30T07:48:43.739Z,99499.59
2022-10-30T07:49:45.538Z,99509.34
2022-10-30T07:50:47.181Z,99501.94
2022-10-30T07:51:48.827Z,99493.25
2022-10-30T07:52:50.641Z,99503.53
2022-10-30T07:53:52.313Z,99499.13
2022-10-30T07:54:54.001Z,99490.84
2022-10-30T07:55:56.119Z,99496.72
2022-10-30T07:56:59.059Z,99494.47
2022-10-30T07:58:00.899Z,99485.91
2022-10-30T07:59:02.869Z,99488.03
2022-10-30T08:00:10.450Z,99486.81
2022-10-30T08:01:12.183Z,99491.28
2022-10-30T08:02:14.620Z,99490.06
2022-10-30T08:03:16.402Z,99487.22
2022-10-30T08:04:18.105Z,99486.06
2022-10-30T08:05:19.839Z,99474.63
2022-10-30T08:06:24.628Z,99475.69
2022-10-30T08:07:32.739Z,99474.03
2022-10-30T08:08:37.856Z,99479.81
2022-10-30T08:09:43.854Z,99477.25
2022-10-30T08:10:45.531Z,99480.00
2022-10-30T08:11:47.180Z,99477.97
2022-10-30T08:12:48.881Z,99470.53
2022-10-30T08:13:50.544Z,99480.00
2022-10-30T08:14:53.168Z,99469.84
2022-10-30T08:15:54.848Z,99467.34
2022-10-30T08:16:57.010Z,99475.75
2022-10-30T08:17:59.140Z,99476.69
2022-10-30T08:19:01.397Z,99464.63
2022-10-30T08:20:03.061Z,99463.84
2022-10-30T08:21:04.894Z,99463.31
2022-10-30T08:22:06.583Z,99460.91
2022-10-30T08:23:09.017Z,99462.41
2022-10-30T08:24:10.848Z,99467.66
2022-10-30T08:25:12.526Z,99458.44
2022-10-30T08:26:14.555Z,99452.38
2022-10-30T08:27:16.238Z,99455.56
2022-10-30T08:28:17.984Z,99453.75
2022-10-30T08:29:19.703Z,99452.13
2022-10-30T08:30:22.525Z,99441.50
2022-10-30T08:31:24.188Z,99454.50
2022-10-30T08:32:25.852Z,99456.72
2022-10-30T08:33:27.519Z,99453.84
2022-10-30T08:34:31.760Z,99453.06
2022-10-30T08:35:33.574Z,99445.25
2022-10-30T08:36:35.306Z,99453.84
2022-10-30T08:37:36.990Z,99446.84
2022-10-30T08:38:38.651Z,99442.13
2022-10-30T08:39:40.296Z,99442.69
2022-10-30T08:40:42.195Z,99454.91
2022-10-30T08:41:44.592Z,99446.84
2022-10-30T08:42:57.280Z,99445.25
2022-10-30T08:43:58.936Z,99448.28
2022-10-30T08:45:00.576Z,99441.09
2022-10-30T08:46:02.324Z,99440.63
2022-10-30T08:47:04.000Z,99436.97
2022-10-30T08:48:06.511Z,99443.59
2022-10-30T08:49:08.184Z,99437.38
2022-10-30T08:50:10.017Z,99439.91
2022-10-30T08:51:11.787Z,99431.50
2022-10-30T08:52:13.433Z,99428.34
2022-10-30T08:53:16.184Z,99436.41
2022-10-30T08:54:17.900Z,99437.31
2022-10-30T08:55:19.581Z,99440.94
2022-10-30T08:56:21.223Z,99431.91
2022-10-30T08:57:22.918Z,99430.81
2022-10-30T08:58:24.620Z,99432.13
2022-10-30T08:59:26.305Z,99426.75
2022-10-30T09:00:28.202Z,99434.13
2022-10-30T09:01:29.905Z,99432.25
2022-10-30T09:02:31.795Z,99432.66
2022-10-30T09:03:33.589Z,99424.19
2022-10-30T09:04:36.140Z,99427.19
2022-10-30T09:05:38.011Z,99424.25
2022-10-30T09:06:39.699Z,99426.16
2022-10-30T09:07:41.371Z,99423.56
2022-10-30T09:08:43.088Z,99428.50
2022-10-30T09:09:44.787Z,99422.88
2022-10-30T09:10:46.456Z,99428.34
2022-10-30T09:11:49.189Z,99418.91
2022-10-30T09:13:02.584Z,99424.09
2022-10-30T09:14:04.246Z,99422.00
2022-10-30T09:15:07.007Z,99416.94
2022-10-30T09:16:08.660Z,99416.75
2022-10-30T09:17:10.418Z,99420.09
2022-10-30T09:18:12.123Z,99416.41
2022-10-30T09:19:18.567Z,99419.16
2022-10-30T09:20:20.596Z,99413.34
2022-10-30T09:21:22.260Z,99408.84
2022-10-30T09:22:23.974Z,99406.22
2022-10-30T09:23:25.630Z,99412.44
2022-10-30T09:24:27.332Z,99405.06
2022-10-30T09:25:29.023Z,99405.38
2022-10-30T09:26:30.682Z,99406.81
2022-10-30T09:27:32.385Z,99400.50
2022-10-30T09:28:34.106Z,99403.00
2022-10-30T09:29:36.024Z,99408.56
2022-10-30T09:30:38.099Z,99396.94
2022-10-30T09:31:40.064Z,99397.75
2022-10-30T09:32:41.803Z,99390.53
2022-10-30T09:33:43.441Z,99390.25
2022-10-30T09:34:45.482Z,99388.47
2022-10-30T09:35:47.140Z,99383.59
2022-10-30T09:36:49.724Z,99382.09
2022-10-30T09:37:51.404Z,99381.78
2022-10-30T09:38:55.560Z,99373.31
2022-10-30T09:39:57.198Z,99376.94
2022-10-30T09:41:10.573Z,99366.53
2022-10-30T09:42:18.221Z,99373.47
2022-10-30T09:43:26.008Z,99370.72
2022-10-30T09:45:15.334Z,99372.69
2022-10-30T09:46:32.537Z,99368.91
2022-10-30T09:48:13.046Z,99365.53
2022-10-30T09:49:59.722Z,99364.38
2022-10-30T09:51:36.203Z,99359.31
2022-10-30T09:52:53.532Z,99359.78
2022-10-30T09:54:05.532Z,99360.47
2022-10-30T09:55:22.528Z,99351.59
2022-10-30T09:56:39.368Z,99349.56
2022-10-30T09:57:53.003Z,99348.84
2022-10-30T09:59:01.031Z,99351.16
2022-10-30T10:00:03.051Z,99347.50
2022-10-30T10:01:20.094Z,99349.63
2022-10-30T10:02:58.827Z,99340.16
2022-10-30T10:04:26.549Z,99342.88
2022-10-30T10:05:44.721Z,99334.03
2022-10-30T10:06:51.001Z,99339.00
2022-10-30T10:08:03.094Z,99333.50
2022-10-30T10:09:12.959Z,99332.34
2022-10-30T10:10:25.966Z,99327.84
2022-10-30T10:11:36.149Z,99331.56
2022-10-30T10:13:05.063Z,99338.16
2022-10-30T10:14:15.071Z,99334.09
2022-10-30T10:15:33.092Z,99329.16
2022-10-30T10:16:38.356Z,99327.81
2022-10-30T10:17:44.788Z,99330.94
2022-10-30T10:18:57.403Z,99331.06
2022-10-30T10:20:00.463Z,99332.72
2022-10-30T10:21:09.860Z,99329.06
2022-10-30T10:22:49.575Z,99335.16
2022-10-30T10:24:03.688Z,99326.56
2022-10-30T10:25:29.421Z,99325.44
2022-10-30T10:26:53.588Z,99319.84
2022-10-30T10:27:55.240Z,99326.97
2022-10-30T10:29:12.464Z,99318.28
2022-10-30T10:30:52.003Z,99314.50
2022-10-30T10:32:08.886Z,99317.63
2022-10-30T10:33:36.955Z,99307.28
2022-10-30T10:35:00.036Z,99307.09
2022-10-30T10:36:30.785Z,99307.34
2022-10-30T10:37:56.936Z,99305.78
2022-10-30T10:39:18.514Z,99305.50
2022-10-30T10:41:04.860Z,99285.09
2022-10-30T10:42:15.450Z,99291.00
2022-10-30T10:43:38.556Z,99290.88
2022-10-30T10:45:15.463Z,99281.44
2022-10-30T10:46:43.942Z,99283.81
2022-10-30T10:47:54.415Z,99273.00
2022-10-30T10:49:18.225Z,99274.16
2022-10-30T10:50:31.720Z,99271.84
2022-10-30T10:51:42.211Z,99275.19
2022-10-30T10:52:52.254Z,99266.06
2022-10-30T10:54:04.908Z,99272.00
2022-10-30T10:55:22.924Z,99261.59
2022-10-30T10:56:33.264Z,99272.09
2022-10-30T10:57:38.113Z,99266.63
2022-10-30T10:58:55.460Z,99260.97
2022-10-30T11:00:02.855Z,99266.06
2022-10-30T11:01:09.588Z,99261.25
2022-10-30T11:02:14.230Z,99259.00
2022-10-30T11:03:22.034Z,99248.44
2022-10-30T11:04:41.843Z,99253.44
2022-10-30T11:06:02.246Z,99249.56
2022-10-30T11:07:18.030Z,99245.94
2022-10-30T11:08:31.259Z,99245.47
2022-10-30T11:09:32.902Z,99243.88
2022-10-30T11:10:34.586Z,99235.66
2022-10-30T11:11:37.327Z,99244.66
2022-10-30T11:12:38.999Z,99237.47
2022-10-30T11:13:42.573Z,99231.31
2022-10-30T11:14:44.420Z,99229.59
2022-10-30T11:15:46.024Z,99233.78
2022-10-30T11:16:55.366Z,99224.47
2022-10-30T11:19:09.584Z,99223.09
2022-10-30T11:20:42.612Z,99238.94
2022-10-30T11:21:50.957Z,99217.41
2022-10-30T11:22:52.701Z,99220.44
2022-10-30T11:23:54.449Z,99219.97
2022-10-30T11:24:56.098Z,99216.78
2022-10-30T11:25:57.817Z,99220.84
2022-10-30T11:27:25.041Z,99220.72
2022-10-30T11:28:42.487Z,99215.84
2022-10-30T11:29:56.568Z,99214.13
2022-10-30T11:31:21.585Z,99203.34
2022-10-30T11:32:27.614Z,99216.13
2022-10-30T11:33:30.682Z,99208.16
2022-10-30T11:34:39.175Z,99214.97
2022-10-30T11:35:42.619Z,99211.59
2022-10-30T11:36:45.722Z,99214.84
2022-10-30T11:37:50.321Z,99210.16
2022-10-30T11:38:56.020Z,99209.94
2022-10-30T11:40:17.514Z,99207.84
2022-10-30T11:41:20.559Z,99209.31
2022-10-30T11:42:22.265Z,99201.34
2022-10-30T11:43:25.687Z,99195.91
2022-10-30T11:44:51.919Z,99203.00
2022-10-30T11:45:54.401Z,99189.25
2022-10-30T11:46:56.805Z,99191.28
2022-10-30T11:48:02.750Z,99189.78
2022-10-30T11:49:05.562Z,99192.09
2022-10-30T11:50:20.094Z,99197.09
2022-10-30T11:51:39.809Z,99199.63
2022-10-30T11:52:43.114Z,99193.59
2022-10-30T11:53:50.480Z,99187.28
2022-10-30T11:54:57.267Z,99190.59
2022-10-30T11:55:59.068Z,99180.56
2022-10-30T11:57:00.787Z,99196.22
2022-10-30T11:58:03.211Z,99187.59
2022-10-30T11:59:05.927Z,99185.31
2022-10-30T12:00:16.767Z,99184.44
2022-10-30T12:01:27.486Z,99181.13
2022-10-30T12:02:30.593Z,99192.31
2022-10-30T12:03:38.358Z,99178.03
2022-10-30T12:04:40.062Z,99183.34
2022-10-30T12:05:44.923Z,99173.72
2022-10-30T12:06:48.208Z,99164.25
2022-10-30T12:07:49.897Z,99176.53
2022-10-30T12:09:04.664Z,99181.31
2022-10-30T12:10:27.432Z,99174.78
2022-10-30T12:11:34.403Z,99169.88
2022-10-30T12:12:42.747Z,99163.78
2022-10-30T12:13:44.847Z,99173.09
2022-10-30T12:14:46.708Z,99173.09
2022-10-30T12:15:51.559Z,99166.88
2022-10-30T12:16:56.317Z,99166.16
2022-10-30T12:18:02.630Z,99174.63
2022-10-30T12:19:09.348Z,99166.16
2022-10-30T12:20:15.228Z,99163.28
2022-10-30T12:21:19.577Z,99172.91
2022-10-30T12:22:39.666Z,99165.09
2022-10-30T12:23:41.417Z,99167.09
2022-10-30T12:24:44.157Z,99166.59
2022-10-30T12:25:51.415Z,99169.09
2022-10-30T12:26:55.680Z,99159.41
2022-10-30T12:28:14.956Z,99160.91
2022-10-30T12:29:20.840Z,99151.09
2022-10-30T12:30:22.502Z,99152.78
2022-10-30T12:31:32.781Z,99163.31
2022-10-30T12:32:46.618Z,99152.91
2022-10-30T12:33:58.896Z,99153.50
2022-10-30T12:35:08.838Z,99161.19
2022-10-30T12:36:18.883Z,99149.38
2022-10-30T12:37:29.496Z,99160.28
2022-10-30T12:38:39.314Z,99165.69
2022-10-30T12:40:10.817Z,99158.84
2022-10-30T12:41:12.546Z,99152.84
2022-10-30T12:42:17.054Z,99146.63
2022-10-30T12:43:27.409Z,99157.34
2022-10-30T12:44:35.015Z,99157.25
2022-10-30T12:45:43.643Z,99155.75
2022-10-30T12:47:01.417Z,99150.41
2022-10-30T12:48:24.151Z,99155.91
2022-10-30T12:49:31.259Z,99147.78
2022-10-30T12:50:45.396Z,99150.81